sensor_id;sensor_type;location;lat;lon;timestamp;P1;durP1;ratioP1;P2;durP2;ratioP2
3916;SDS011;1973;50.518;7.318;2023-05-27T00:00:41;9.20;;;5.40;;
3916;SDS011;1973;50.518;7.318;2023-05-27T00:03:08;10.07;;;5.30;;
3916;SDS011;1973;50.518;7.318;2023-05-27T00:05:35;8.90;;;5.10;;
3916;SDS011;1973;50.518;7.318;2023-05-27T00:08:01;19.30;;;6.10;;
3916;SDS011;1973;50.518;7.318;2023-05-27T00:10:28;8.13;;;4.80;;
3916;SDS011;1973;50.518;7.318;2023-05-27T00:12:54;8.10;;;4.70;;
3916;SDS011;1973;50.518;7.318;2023-05-27T00:15:20;9.77;;;5.20;;
3916;SDS011;1973;50.518;7.318;2023-05-27T00:17:47;9.93;;;4.80;;
3916;SDS011;1973;50.518;7.318;2023-05-27T00:20:15;8.77;;;5.20;;
3916;SDS011;1973;50.518;7.318;2023-05-27T00:22:42;9.10;;;4.93;;
3916;SDS011;1973;50.518;7.318;2023-05-27T00:25:09;10.60;;;5.60;;
3916;SDS011;1973;50.518;7.318;2023-05-27T00:27:35;12.43;;;5.90;;
3916;SDS011;1973;50.518;7.318;2023-05-27T00:30:02;9.10;;;5.43;;
3916;SDS011;1973;50.518;7.318;2023-05-27T00:32:29;8.03;;;4.90;;
3916;SDS011;1973;50.518;7.318;2023-05-27T00:34:55;12.83;;;5.97;;
3916;SDS011;1973;50.518;7.318;2023-05-27T00:37:22;9.23;;;5.40;;
3916;SDS011;1973;50.518;7.318;2023-05-27T00:39:48;13.20;;;4.80;;
3916;SDS011;1973;50.518;7.318;2023-05-27T00:42:15;9.87;;;5.10;;
3916;SDS011;1973;50.518;7.318;2023-05-27T00:44:42;11.30;;;5.53;;
3916;SDS011;1973;50.518;7.318;2023-05-27T00:47:09;8.80;;;5.07;;
3916;SDS011;1973;50.518;7.318;2023-05-27T00:49:35;9.77;;;5.17;;
3916;SDS011;1973;50.518;7.318;2023-05-27T00:52:03;12.57;;;5.30;;
3916;SDS011;1973;50.518;7.318;2023-05-27T00:54:30;12.83;;;5.50;;
3916;SDS011;1973;50.518;7.318;2023-05-27T00:57:00;11.93;;;5.37;;
3916;SDS011;1973;50.518;7.318;2023-05-27T00:59:30;9.20;;;4.73;;
3916;SDS011;1973;50.518;7.318;2023-05-27T01:01:57;8.37;;;5.20;;
3916;SDS011;1973;50.518;7.318;2023-05-27T01:04:24;12.27;;;4.97;;
3916;SDS011;1973;50.518;7.318;2023-05-27T01:06:57;8.60;;;5.47;;
3916;SDS011;1973;50.518;7.318;2023-05-27T01:12:18;11.77;;;5.37;;
3916;SDS011;1973;50.518;7.318;2023-05-27T01:14:46;9.90;;;6.10;;
3916;SDS011;1973;50.518;7.318;2023-05-27T01:17:16;10.73;;;6.03;;
3916;SDS011;1973;50.518;7.318;2023-05-27T01:19:45;10.53;;;5.90;;
3916;SDS011;1973;50.518;7.318;2023-05-27T01:22:12;13.30;;;5.87;;
3916;SDS011;1973;50.518;7.318;2023-05-27T01:24:39;10.60;;;5.37;;
3916;SDS011;1973;50.518;7.318;2023-05-27T01:27:09;9.90;;;4.97;;
3916;SDS011;1973;50.518;7.318;2023-05-27T01:29:41;11.90;;;5.57;;
3916;SDS011;1973;50.518;7.318;2023-05-27T01:32:12;9.77;;;5.53;;
3916;SDS011;1973;50.518;7.318;2023-05-27T01:37:25;11.20;;;5.43;;
3916;SDS011;1973;50.518;7.318;2023-05-27T01:39:55;10.67;;;5.80;;
3916;SDS011;1973;50.518;7.318;2023-05-27T01:42:23;11.83;;;5.87;;
3916;SDS011;1973;50.518;7.318;2023-05-27T01:44:50;11.03;;;5.27;;
3916;SDS011;1973;50.518;7.318;2023-05-27T01:47:18;10.17;;;5.83;;
3916;SDS011;1973;50.518;7.318;2023-05-27T01:49:45;11.00;;;5.90;;
3916;SDS011;1973;50.518;7.318;2023-05-27T01:52:11;10.87;;;5.30;;
3916;SDS011;1973;50.518;7.318;2023-05-27T01:54:38;9.93;;;5.40;;
3916;SDS011;1973;50.518;7.318;2023-05-27T01:57:04;9.23;;;5.33;;
3916;SDS011;1973;50.518;7.318;2023-05-27T01:59:32;8.30;;;6.00;;
3916;SDS011;1973;50.518;7.318;2023-05-27T02:01:58;11.97;;;5.60;;
3916;SDS011;1973;50.518;7.318;2023-05-27T02:04:25;10.83;;;5.63;;
3916;SDS011;1973;50.518;7.318;2023-05-27T02:06:51;9.30;;;5.47;;
3916;SDS011;1973;50.518;7.318;2023-05-27T02:09:18;11.40;;;5.53;;
3916;SDS011;1973;50.518;7.318;2023-05-27T02:11:44;12.57;;;6.57;;
3916;SDS011;1973;50.518;7.318;2023-05-27T02:14:11;10.30;;;6.13;;
3916;SDS011;1973;50.518;7.318;2023-05-27T02:16:38;11.50;;;5.60;;
3916;SDS011;1973;50.518;7.318;2023-05-27T02:19:05;15.50;;;6.10;;
3916;SDS011;1973;50.518;7.318;2023-05-27T02:21:32;11.67;;;6.33;;
3916;SDS011;1973;50.518;7.318;2023-05-27T02:23:59;10.20;;;5.80;;
3916;SDS011;1973;50.518;7.318;2023-05-27T02:26:25;10.47;;;7.10;;
3916;SDS011;1973;50.518;7.318;2023-05-27T02:28:52;10.13;;;6.30;;
3916;SDS011;1973;50.518;7.318;2023-05-27T02:31:18;11.67;;;5.50;;
3916;SDS011;1973;50.518;7.318;2023-05-27T02:33:45;8.83;;;5.70;;
3916;SDS011;1973;50.518;7.318;2023-05-27T02:36:12;6.93;;;5.77;;
3916;SDS011;1973;50.518;7.318;2023-05-27T02:38:39;11.70;;;5.97;;
3916;SDS011;1973;50.518;7.318;2023-05-27T02:41:05;13.40;;;5.50;;
3916;SDS011;1973;50.518;7.318;2023-05-27T02:43:32;10.90;;;5.83;;
3916;SDS011;1973;50.518;7.318;2023-05-27T02:45:59;8.50;;;5.73;;
3916;SDS011;1973;50.518;7.318;2023-05-27T02:48:25;9.87;;;5.90;;
3916;SDS011;1973;50.518;7.318;2023-05-27T02:50:51;9.53;;;5.60;;
3916;SDS011;1973;50.518;7.318;2023-05-27T02:53:18;8.97;;;5.63;;
3916;SDS011;1973;50.518;7.318;2023-05-27T02:55:44;11.97;;;5.77;;
3916;SDS011;1973;50.518;7.318;2023-05-27T02:58:11;10.60;;;6.07;;
3916;SDS011;1973;50.518;7.318;2023-05-27T03:00:37;9.90;;;5.63;;
3916;SDS011;1973;50.518;7.318;2023-05-27T03:03:04;7.03;;;4.93;;
3916;SDS011;1973;50.518;7.318;2023-05-27T03:05:36;11.30;;;5.53;;
3916;SDS011;1973;50.518;7.318;2023-05-27T03:08:02;9.60;;;5.33;;
3916;SDS011;1973;50.518;7.318;2023-05-27T03:10:32;8.00;;;5.80;;
3916;SDS011;1973;50.518;7.318;2023-05-27T03:12:59;10.67;;;5.60;;
3916;SDS011;1973;50.518;7.318;2023-05-27T03:15:25;12.10;;;6.33;;
3916;SDS011;1973;50.518;7.318;2023-05-27T03:17:56;11.70;;;6.13;;
3916;SDS011;1973;50.518;7.318;2023-05-27T03:20:23;16.30;;;6.10;;
3916;SDS011;1973;50.518;7.318;2023-05-27T03:22:50;8.90;;;5.17;;
3916;SDS011;1973;50.518;7.318;2023-05-27T03:25:17;10.90;;;5.13;;
3916;SDS011;1973;50.518;7.318;2023-05-27T03:27:43;7.60;;;4.97;;
3916;SDS011;1973;50.518;7.318;2023-05-27T03:30:10;8.40;;;5.63;;
3916;SDS011;1973;50.518;7.318;2023-05-27T03:32:37;10.80;;;6.40;;
3916;SDS011;1973;50.518;7.318;2023-05-27T03:35:04;13.37;;;6.50;;
3916;SDS011;1973;50.518;7.318;2023-05-27T03:37:31;9.50;;;5.80;;
3916;SDS011;1973;50.518;7.318;2023-05-27T03:39:57;10.53;;;5.73;;
3916;SDS011;1973;50.518;7.318;2023-05-27T03:42:24;10.33;;;5.60;;
3916;SDS011;1973;50.518;7.318;2023-05-27T03:44:50;11.20;;;5.60;;
3916;SDS011;1973;50.518;7.318;2023-05-27T03:47:17;11.23;;;6.43;;
3916;SDS011;1973;50.518;7.318;2023-05-27T03:49:47;12.50;;;5.73;;
3916;SDS011;1973;50.518;7.318;2023-05-27T03:52:14;9.40;;;5.37;;
3916;SDS011;1973;50.518;7.318;2023-05-27T03:54:41;10.33;;;6.20;;
3916;SDS011;1973;50.518;7.318;2023-05-27T03:57:08;10.73;;;5.73;;
3916;SDS011;1973;50.518;7.318;2023-05-27T03:59:35;12.70;;;6.30;;
3916;SDS011;1973;50.518;7.318;2023-05-27T04:02:02;9.50;;;5.80;;
3916;SDS011;1973;50.518;7.318;2023-05-27T04:04:29;9.33;;;5.20;;
3916;SDS011;1973;50.518;7.318;2023-05-27T04:06:55;9.63;;;6.93;;
3916;SDS011;1973;50.518;7.318;2023-05-27T04:09:22;8.83;;;5.33;;
3916;SDS011;1973;50.518;7.318;2023-05-27T04:11:49;13.87;;;5.97;;
3916;SDS011;1973;50.518;7.318;2023-05-27T04:14:15;7.10;;;6.20;;
3916;SDS011;1973;50.518;7.318;2023-05-27T04:16:42;10.40;;;5.50;;
3916;SDS011;1973;50.518;7.318;2023-05-27T04:19:09;9.30;;;5.20;;
3916;SDS011;1973;50.518;7.318;2023-05-27T04:21:36;9.23;;;6.17;;
3916;SDS011;1973;50.518;7.318;2023-05-27T04:24:03;9.40;;;5.40;;
3916;SDS011;1973;50.518;7.318;2023-05-27T04:26:29;10.10;;;5.80;;
3916;SDS011;1973;50.518;7.318;2023-05-27T04:28:56;11.87;;;6.53;;
3916;SDS011;1973;50.518;7.318;2023-05-27T04:31:26;9.20;;;5.63;;
3916;SDS011;1973;50.518;7.318;2023-05-27T04:33:55;13.53;;;6.67;;
3916;SDS011;1973;50.518;7.318;2023-05-27T04:36:21;11.40;;;6.13;;
3916;SDS011;1973;50.518;7.318;2023-05-27T04:38:51;10.27;;;6.33;;
3916;SDS011;1973;50.518;7.318;2023-05-27T04:41:18;8.70;;;5.33;;
3916;SDS011;1973;50.518;7.318;2023-05-27T04:43:46;8.60;;;6.60;;
3916;SDS011;1973;50.518;7.318;2023-05-27T04:46:14;8.93;;;5.90;;
3916;SDS011;1973;50.518;7.318;2023-05-27T04:48:40;14.63;;;6.23;;
3916;SDS011;1973;50.518;7.318;2023-05-27T04:51:07;13.03;;;6.10;;
3916;SDS011;1973;50.518;7.318;2023-05-27T04:53:33;14.53;;;6.10;;
3916;SDS011;1973;50.518;7.318;2023-05-27T04:56:00;11.80;;;6.33;;
3916;SDS011;1973;50.518;7.318;2023-05-27T04:58:27;14.07;;;6.80;;
3916;SDS011;1973;50.518;7.318;2023-05-27T05:00:54;8.07;;;6.03;;
3916;SDS011;1973;50.518;7.318;2023-05-27T05:03:23;12.37;;;6.10;;
3916;SDS011;1973;50.518;7.318;2023-05-27T05:06:03;15.40;;;6.17;;
3916;SDS011;1973;50.518;7.318;2023-05-27T05:08:30;11.90;;;6.40;;
3916;SDS011;1973;50.518;7.318;2023-05-27T05:10:57;10.50;;;6.93;;
3916;SDS011;1973;50.518;7.318;2023-05-27T05:13:24;7.30;;;5.63;;
3916;SDS011;1973;50.518;7.318;2023-05-27T05:15:55;12.47;;;6.33;;
3916;SDS011;1973;50.518;7.318;2023-05-27T05:18:22;14.73;;;7.20;;
3916;SDS011;1973;50.518;7.318;2023-05-27T05:20:48;12.17;;;6.60;;
3916;SDS011;1973;50.518;7.318;2023-05-27T05:23:16;11.07;;;7.50;;
3916;SDS011;1973;50.518;7.318;2023-05-27T05:25:43;12.43;;;7.27;;
3916;SDS011;1973;50.518;7.318;2023-05-27T05:28:09;17.03;;;8.00;;
3916;SDS011;1973;50.518;7.318;2023-05-27T05:30:36;16.70;;;8.80;;
3916;SDS011;1973;50.518;7.318;2023-05-27T05:33:02;13.53;;;7.30;;
3916;SDS011;1973;50.518;7.318;2023-05-27T05:35:29;9.23;;;6.70;;
3916;SDS011;1973;50.518;7.318;2023-05-27T05:37:57;10.57;;;8.33;;
3916;SDS011;1973;50.518;7.318;2023-05-27T05:40:23;16.60;;;8.83;;
3916;SDS011;1973;50.518;7.318;2023-05-27T05:42:50;11.47;;;8.50;;
3916;SDS011;1973;50.518;7.318;2023-05-27T05:45:16;13.33;;;8.10;;
3916;SDS011;1973;50.518;7.318;2023-05-27T05:47:43;14.00;;;8.93;;
3916;SDS011;1973;50.518;7.318;2023-05-27T05:50:09;10.10;;;7.83;;
3916;SDS011;1973;50.518;7.318;2023-05-27T05:52:36;14.80;;;8.20;;
3916;SDS011;1973;50.518;7.318;2023-05-27T05:55:03;13.30;;;8.30;;
3916;SDS011;1973;50.518;7.318;2023-05-27T05:57:29;19.27;;;8.83;;
3916;SDS011;1973;50.518;7.318;2023-05-27T06:00:01;15.00;;;9.43;;
3916;SDS011;1973;50.518;7.318;2023-05-27T06:02:27;15.87;;;9.03;;
3916;SDS011;1973;50.518;7.318;2023-05-27T06:04:54;18.80;;;9.67;;
3916;SDS011;1973;50.518;7.318;2023-05-27T06:07:21;16.73;;;9.53;;
3916;SDS011;1973;50.518;7.318;2023-05-27T06:09:47;16.43;;;9.03;;
3916;SDS011;1973;50.518;7.318;2023-05-27T06:12:14;13.27;;;9.10;;
3916;SDS011;1973;50.518;7.318;2023-05-27T06:14:40;15.20;;;7.30;;
3916;SDS011;1973;50.518;7.318;2023-05-27T06:17:07;14.57;;;8.03;;
3916;SDS011;1973;50.518;7.318;2023-05-27T06:19:33;17.40;;;8.40;;
3916;SDS011;1973;50.518;7.318;2023-05-27T06:22:00;16.97;;;8.60;;
3916;SDS011;1973;50.518;7.318;2023-05-27T06:24:26;15.20;;;8.07;;
3916;SDS011;1973;50.518;7.318;2023-05-27T06:26:53;15.10;;;8.63;;
3916;SDS011;1973;50.518;7.318;2023-05-27T06:29:19;14.20;;;8.50;;
3916;SDS011;1973;50.518;7.318;2023-05-27T06:31:46;14.13;;;8.70;;
3916;SDS011;1973;50.518;7.318;2023-05-27T06:34:17;15.83;;;8.73;;
3916;SDS011;1973;50.518;7.318;2023-05-27T06:36:43;11.77;;;8.33;;
3916;SDS011;1973;50.518;7.318;2023-05-27T06:39:11;16.37;;;8.33;;
3916;SDS011;1973;50.518;7.318;2023-05-27T06:41:37;13.33;;;8.80;;
3916;SDS011;1973;50.518;7.318;2023-05-27T06:44:03;15.37;;;8.33;;
3916;SDS011;1973;50.518;7.318;2023-05-27T06:46:30;14.57;;;8.10;;
3916;SDS011;1973;50.518;7.318;2023-05-27T06:48:57;13.50;;;8.30;;
3916;SDS011;1973;50.518;7.318;2023-05-27T06:51:23;19.07;;;7.97;;
3916;SDS011;1973;50.518;7.318;2023-05-27T06:53:50;15.00;;;7.80;;
3916;SDS011;1973;50.518;7.318;2023-05-27T06:56:16;11.87;;;6.63;;
3916;SDS011;1973;50.518;7.318;2023-05-27T06:58:43;14.43;;;7.03;;
3916;SDS011;1973;50.518;7.318;2023-05-27T07:01:10;15.90;;;7.40;;
3916;SDS011;1973;50.518;7.318;2023-05-27T07:03:37;12.07;;;6.80;;
3916;SDS011;1973;50.518;7.318;2023-05-27T07:06:03;16.20;;;7.00;;
3916;SDS011;1973;50.518;7.318;2023-05-27T07:08:30;15.20;;;6.70;;
3916;SDS011;1973;50.518;7.318;2023-05-27T07:10:56;10.93;;;7.17;;
3916;SDS011;1973;50.518;7.318;2023-05-27T07:13:23;18.40;;;8.80;;
3916;SDS011;1973;50.518;7.318;2023-05-27T07:15:49;16.50;;;8.57;;
3916;SDS011;1973;50.518;7.318;2023-05-27T07:18:17;19.20;;;9.00;;
3916;SDS011;1973;50.518;7.318;2023-05-27T07:20:43;21.30;;;7.97;;
3916;SDS011;1973;50.518;7.318;2023-05-27T07:23:10;16.70;;;7.27;;
3916;SDS011;1973;50.518;7.318;2023-05-27T07:25:37;18.03;;;6.97;;
3916;SDS011;1973;50.518;7.318;2023-05-27T07:28:03;10.77;;;5.60;;
3916;SDS011;1973;50.518;7.318;2023-05-27T07:30:30;10.63;;;5.77;;
3916;SDS011;1973;50.518;7.318;2023-05-27T07:32:57;13.80;;;5.60;;
3916;SDS011;1973;50.518;7.318;2023-05-27T07:35:23;15.10;;;6.30;;
3916;SDS011;1973;50.518;7.318;2023-05-27T07:37:50;9.93;;;5.70;;
3916;SDS011;1973;50.518;7.318;2023-05-27T07:40:16;14.37;;;5.90;;
3916;SDS011;1973;50.518;7.318;2023-05-27T07:42:43;10.07;;;4.90;;
3916;SDS011;1973;50.518;7.318;2023-05-27T07:45:10;17.00;;;5.77;;
3916;SDS011;1973;50.518;7.318;2023-05-27T07:47:36;13.97;;;5.20;;
3916;SDS011;1973;50.518;7.318;2023-05-27T07:50:03;16.13;;;5.93;;
3916;SDS011;1973;50.518;7.318;2023-05-27T07:52:30;14.93;;;6.80;;
3916;SDS011;1973;50.518;7.318;2023-05-27T07:54:56;11.83;;;7.77;;
3916;SDS011;1973;50.518;7.318;2023-05-27T07:57:23;18.00;;;8.63;;
3916;SDS011;1973;50.518;7.318;2023-05-27T07:59:50;14.57;;;8.33;;
3916;SDS011;1973;50.518;7.318;2023-05-27T08:02:17;12.70;;;7.70;;
3916;SDS011;1973;50.518;7.318;2023-05-27T08:04:43;12.60;;;6.30;;
3916;SDS011;1973;50.518;7.318;2023-05-27T08:07:11;13.80;;;5.90;;
3916;SDS011;1973;50.518;7.318;2023-05-27T08:09:37;13.10;;;5.83;;
3916;SDS011;1973;50.518;7.318;2023-05-27T08:12:04;12.20;;;5.47;;
3916;SDS011;1973;50.518;7.318;2023-05-27T08:14:33;10.43;;;5.80;;
3916;SDS011;1973;50.518;7.318;2023-05-27T08:17:00;17.73;;;6.20;;
3916;SDS011;1973;50.518;7.318;2023-05-27T08:19:27;16.83;;;5.90;;
3916;SDS011;1973;50.518;7.318;2023-05-27T08:21:54;13.83;;;6.47;;
3916;SDS011;1973;50.518;7.318;2023-05-27T08:24:22;10.80;;;6.30;;
3916;SDS011;1973;50.518;7.318;2023-05-27T08:26:49;12.97;;;6.03;;
3916;SDS011;1973;50.518;7.318;2023-05-27T08:29:16;12.23;;;5.53;;
3916;SDS011;1973;50.518;7.318;2023-05-27T08:31:42;11.80;;;6.17;;
3916;SDS011;1973;50.518;7.318;2023-05-27T08:34:09;14.07;;;5.10;;
3916;SDS011;1973;50.518;7.318;2023-05-27T08:36:36;10.57;;;5.60;;
3916;SDS011;1973;50.518;7.318;2023-05-27T08:39:03;10.43;;;5.13;;
3916;SDS011;1973;50.518;7.318;2023-05-27T08:41:30;14.90;;;4.73;;
3916;SDS011;1973;50.518;7.318;2023-05-27T08:43:58;11.80;;;5.30;;
3916;SDS011;1973;50.518;7.318;2023-05-27T08:46:45;14.63;;;5.63;;
3916;SDS011;1973;50.518;7.318;2023-05-27T08:49:15;11.17;;;4.60;;
3916;SDS011;1973;50.518;7.318;2023-05-27T08:51:45;10.70;;;5.13;;
3916;SDS011;1973;50.518;7.318;2023-05-27T08:54:12;14.20;;;5.90;;
3916;SDS011;1973;50.518;7.318;2023-05-27T08:56:39;12.87;;;6.10;;
3916;SDS011;1973;50.518;7.318;2023-05-27T08:59:06;9.27;;;4.23;;
3916;SDS011;1973;50.518;7.318;2023-05-27T09:01:33;7.00;;;4.50;;
3916;SDS011;1973;50.518;7.318;2023-05-27T09:04:01;9.80;;;5.43;;
3916;SDS011;1973;50.518;7.318;2023-05-27T09:06:27;9.83;;;4.70;;
3916;SDS011;1973;50.518;7.318;2023-05-27T09:08:54;11.53;;;5.23;;
3916;SDS011;1973;50.518;7.318;2023-05-27T09:11:24;8.43;;;4.33;;
3916;SDS011;1973;50.518;7.318;2023-05-27T09:13:55;9.70;;;4.30;;
3916;SDS011;1973;50.518;7.318;2023-05-27T09:16:22;15.40;;;4.80;;
3916;SDS011;1973;50.518;7.318;2023-05-27T09:18:50;8.83;;;4.30;;
3916;SDS011;1973;50.518;7.318;2023-05-27T09:21:16;15.03;;;5.23;;
3916;SDS011;1973;50.518;7.318;2023-05-27T09:23:43;11.60;;;4.47;;
3916;SDS011;1973;50.518;7.318;2023-05-27T09:26:11;11.73;;;5.27;;
3916;SDS011;1973;50.518;7.318;2023-05-27T09:28:38;13.23;;;4.70;;
3916;SDS011;1973;50.518;7.318;2023-05-27T09:31:07;10.57;;;5.10;;
3916;SDS011;1973;50.518;7.318;2023-05-27T09:33:36;9.30;;;4.50;;
3916;SDS011;1973;50.518;7.318;2023-05-27T09:36:04;8.50;;;4.30;;
3916;SDS011;1973;50.518;7.318;2023-05-27T09:38:32;11.50;;;4.80;;
3916;SDS011;1973;50.518;7.318;2023-05-27T09:41:00;9.83;;;4.73;;
3916;SDS011;1973;50.518;7.318;2023-05-27T09:43:27;14.60;;;5.33;;
3916;SDS011;1973;50.518;7.318;2023-05-27T09:45:57;12.50;;;5.27;;
3916;SDS011;1973;50.518;7.318;2023-05-27T09:48:27;15.53;;;6.57;;
3916;SDS011;1973;50.518;7.318;2023-05-27T09:50:56;11.50;;;6.53;;
3916;SDS011;1973;50.518;7.318;2023-05-27T09:53:24;11.10;;;6.07;;
3916;SDS011;1973;50.518;7.318;2023-05-27T09:55:54;11.90;;;7.30;;
3916;SDS011;1973;50.518;7.318;2023-05-27T09:58:22;12.17;;;9.10;;
3916;SDS011;1973;50.518;7.318;2023-05-27T10:00:49;12.00;;;7.93;;
3916;SDS011;1973;50.518;7.318;2023-05-27T10:03:19;9.13;;;5.40;;
3916;SDS011;1973;50.518;7.318;2023-05-27T10:05:48;11.87;;;5.27;;
3916;SDS011;1973;50.518;7.318;2023-05-27T10:08:18;12.40;;;4.83;;
3916;SDS011;1973;50.518;7.318;2023-05-27T10:10:51;13.87;;;6.37;;
3916;SDS011;1973;50.518;7.318;2023-05-27T10:13:20;10.30;;;5.10;;
3916;SDS011;1973;50.518;7.318;2023-05-27T10:15:48;7.67;;;4.77;;
3916;SDS011;1973;50.518;7.318;2023-05-27T10:18:21;15.90;;;5.10;;
3916;SDS011;1973;50.518;7.318;2023-05-27T10:21:00;11.57;;;5.00;;
3916;SDS011;1973;50.518;7.318;2023-05-27T10:23:30;10.87;;;5.60;;
3916;SDS011;1973;50.518;7.318;2023-05-27T10:26:01;14.80;;;4.77;;
3916;SDS011;1973;50.518;7.318;2023-05-27T10:28:32;16.17;;;9.70;;
3916;SDS011;1973;50.518;7.318;2023-05-27T10:31:03;10.70;;;7.00;;
3916;SDS011;1973;50.518;7.318;2023-05-27T10:33:37;9.30;;;5.30;;
3916;SDS011;1973;50.518;7.318;2023-05-27T10:36:11;9.00;;;5.83;;
3916;SDS011;1973;50.518;7.318;2023-05-27T10:39:14;10.10;;;5.17;;
3916;SDS011;1973;50.518;7.318;2023-05-27T10:41:48;10.40;;;4.87;;
3916;SDS011;1973;50.518;7.318;2023-05-27T10:46:59;10.83;;;4.50;;
3916;SDS011;1973;50.518;7.318;2023-05-27T10:49:33;15.70;;;6.20;;
3916;SDS011;1973;50.518;7.318;2023-05-27T10:52:05;7.73;;;4.20;;
3916;SDS011;1973;50.518;7.318;2023-05-27T10:54:37;16.40;;;7.00;;
3916;SDS011;1973;50.518;7.318;2023-05-27T10:57:04;14.33;;;10.20;;
3916;SDS011;1973;50.518;7.318;2023-05-27T10:59:38;17.27;;;9.43;;
3916;SDS011;1973;50.518;7.318;2023-05-27T11:02:06;11.70;;;10.30;;
3916;SDS011;1973;50.518;7.318;2023-05-27T11:04:36;19.33;;;14.23;;
3916;SDS011;1973;50.518;7.318;2023-05-27T11:07:03;16.17;;;11.30;;
3916;SDS011;1973;50.518;7.318;2023-05-27T11:09:31;10.60;;;7.20;;
3916;SDS011;1973;50.518;7.318;2023-05-27T11:12:08;12.23;;;7.23;;
3916;SDS011;1973;50.518;7.318;2023-05-27T11:14:38;7.60;;;4.70;;
3916;SDS011;1973;50.518;7.318;2023-05-27T11:17:05;8.45;;;4.50;;
3916;SDS011;1973;50.518;7.318;2023-05-27T11:19:37;8.60;;;4.90;;
3916;SDS011;1973;50.518;7.318;2023-05-27T11:22:07;8.27;;;4.60;;
3916;SDS011;1973;50.518;7.318;2023-05-27T11:24:35;7.40;;;4.80;;
3916;SDS011;1973;50.518;7.318;2023-05-27T11:27:10;10.20;;;4.40;;
3916;SDS011;1973;50.518;7.318;2023-05-27T11:29:48;6.03;;;3.57;;
3916;SDS011;1973;50.518;7.318;2023-05-27T11:32:17;8.00;;;4.07;;
3916;SDS011;1973;50.518;7.318;2023-05-27T11:34:44;8.07;;;4.13;;
3916;SDS011;1973;50.518;7.318;2023-05-27T11:37:15;6.70;;;3.90;;
3916;SDS011;1973;50.518;7.318;2023-05-27T11:39:52;8.93;;;3.80;;
3916;SDS011;1973;50.518;7.318;2023-05-27T11:42:22;9.48;;;3.80;;
3916;SDS011;1973;50.518;7.318;2023-05-27T11:44:50;7.23;;;3.70;;
3916;SDS011;1973;50.518;7.318;2023-05-27T11:47:18;10.20;;;4.83;;
3916;SDS011;1973;50.518;7.318;2023-05-27T11:49:49;9.03;;;4.30;;
3916;SDS011;1973;50.518;7.318;2023-05-27T11:52:16;8.87;;;4.10;;
3916;SDS011;1973;50.518;7.318;2023-05-27T11:54:43;6.13;;;3.67;;
3916;SDS011;1973;50.518;7.318;2023-05-27T11:57:22;6.63;;;3.77;;
3916;SDS011;1973;50.518;7.318;2023-05-27T11:59:50;7.63;;;4.00;;
3916;SDS011;1973;50.518;7.318;2023-05-27T12:02:16;6.17;;;3.77;;
3916;SDS011;1973;50.518;7.318;2023-05-27T12:04:43;7.80;;;3.50;;
3916;SDS011;1973;50.518;7.318;2023-05-27T12:07:10;4.50;;;2.90;;
3916;SDS011;1973;50.518;7.318;2023-05-27T12:09:46;6.43;;;3.37;;
3916;SDS011;1973;50.518;7.318;2023-05-27T12:12:14;7.77;;;3.80;;
3916;SDS011;1973;50.518;7.318;2023-05-27T12:14:41;7.63;;;3.80;;
3916;SDS011;1973;50.518;7.318;2023-05-27T12:17:08;6.57;;;3.43;;
3916;SDS011;1973;50.518;7.318;2023-05-27T12:19:34;6.60;;;3.63;;
3916;SDS011;1973;50.518;7.318;2023-05-27T12:22:01;6.57;;;3.73;;
3916;SDS011;1973;50.518;7.318;2023-05-27T12:24:27;7.43;;;4.10;;
3916;SDS011;1973;50.518;7.318;2023-05-27T12:26:54;7.50;;;4.00;;
3916;SDS011;1973;50.518;7.318;2023-05-27T12:29:21;8.07;;;4.50;;
3916;SDS011;1973;50.518;7.318;2023-05-27T12:31:50;6.20;;;3.40;;
3916;SDS011;1973;50.518;7.318;2023-05-27T12:34:17;8.30;;;4.13;;
3916;SDS011;1973;50.518;7.318;2023-05-27T12:36:44;7.03;;;3.63;;
3916;SDS011;1973;50.518;7.318;2023-05-27T12:39:11;7.90;;;4.30;;
3916;SDS011;1973;50.518;7.318;2023-05-27T12:41:37;7.30;;;3.63;;
3916;SDS011;1973;50.518;7.318;2023-05-27T12:44:04;7.77;;;4.07;;
3916;SDS011;1973;50.518;7.318;2023-05-27T12:46:31;6.87;;;5.50;;
3916;SDS011;1973;50.518;7.318;2023-05-27T12:48:57;9.17;;;4.37;;
3916;SDS011;1973;50.518;7.318;2023-05-27T12:51:24;5.80;;;3.67;;
3916;SDS011;1973;50.518;7.318;2023-05-27T12:53:50;4.90;;;3.07;;
3916;SDS011;1973;50.518;7.318;2023-05-27T12:56:17;6.00;;;3.53;;
3916;SDS011;1973;50.518;7.318;2023-05-27T12:58:43;5.53;;;3.47;;
3916;SDS011;1973;50.518;7.318;2023-05-27T13:01:10;6.30;;;3.07;;
3916;SDS011;1973;50.518;7.318;2023-05-27T13:03:37;8.53;;;3.57;;
3916;SDS011;1973;50.518;7.318;2023-05-27T13:06:03;6.53;;;3.73;;
3916;SDS011;1973;50.518;7.318;2023-05-27T13:08:30;8.07;;;3.70;;
3916;SDS011;1973;50.518;7.318;2023-05-27T13:10:56;8.47;;;3.80;;
3916;SDS011;1973;50.518;7.318;2023-05-27T13:13:23;7.13;;;3.50;;
3916;SDS011;1973;50.518;7.318;2023-05-27T13:15:49;10.43;;;3.70;;
3916;SDS011;1973;50.518;7.318;2023-05-27T13:18:16;7.53;;;3.40;;
3916;SDS011;1973;50.518;7.318;2023-05-27T13:20:42;5.53;;;3.60;;
3916;SDS011;1973;50.518;7.318;2023-05-27T13:23:09;6.17;;;3.80;;
3916;SDS011;1973;50.518;7.318;2023-05-27T13:25:36;6.03;;;3.90;;
3916;SDS011;1973;50.518;7.318;2023-05-27T13:28:02;7.30;;;3.83;;
3916;SDS011;1973;50.518;7.318;2023-05-27T13:30:29;4.67;;;3.40;;
3916;SDS011;1973;50.518;7.318;2023-05-27T13:32:56;5.10;;;3.70;;
3916;SDS011;1973;50.518;7.318;2023-05-27T13:35:23;5.57;;;3.70;;
3916;SDS011;1973;50.518;7.318;2023-05-27T13:37:49;6.87;;;4.17;;
3916;SDS011;1973;50.518;7.318;2023-05-27T13:40:16;8.03;;;4.20;;
3916;SDS011;1973;50.518;7.318;2023-05-27T13:42:42;6.37;;;3.70;;
3916;SDS011;1973;50.518;7.318;2023-05-27T13:45:09;7.30;;;3.70;;
3916;SDS011;1973;50.518;7.318;2023-05-27T13:47:36;4.53;;;3.73;;
3916;SDS011;1973;50.518;7.318;2023-05-27T13:50:06;8.17;;;3.80;;
3916;SDS011;1973;50.518;7.318;2023-05-27T13:52:33;6.77;;;3.80;;
3916;SDS011;1973;50.518;7.318;2023-05-27T13:55:00;8.07;;;3.90;;
3916;SDS011;1973;50.518;7.318;2023-05-27T13:57:27;12.50;;;6.37;;
3916;SDS011;1973;50.518;7.318;2023-05-27T13:59:53;7.93;;;5.93;;
3916;SDS011;1973;50.518;7.318;2023-05-27T14:02:20;8.13;;;4.23;;
3916;SDS011;1973;50.518;7.318;2023-05-27T14:04:46;5.80;;;3.80;;
3916;SDS011;1973;50.518;7.318;2023-05-27T14:07:13;4.10;;;2.93;;
3916;SDS011;1973;50.518;7.318;2023-05-27T14:09:42;7.77;;;3.37;;
3916;SDS011;1973;50.518;7.318;2023-05-27T14:12:09;7.53;;;4.67;;
3916;SDS011;1973;50.518;7.318;2023-05-27T14:14:35;6.23;;;3.73;;
3916;SDS011;1973;50.518;7.318;2023-05-27T14:17:02;6.50;;;3.90;;
3916;SDS011;1973;50.518;7.318;2023-05-27T14:19:28;7.30;;;4.33;;
3916;SDS011;1973;50.518;7.318;2023-05-27T14:21:55;6.43;;;3.70;;
3916;SDS011;1973;50.518;7.318;2023-05-27T14:24:21;6.70;;;4.17;;
3916;SDS011;1973;50.518;7.318;2023-05-27T14:26:48;4.13;;;2.90;;
3916;SDS011;1973;50.518;7.318;2023-05-27T14:29:14;6.37;;;3.60;;
3916;SDS011;1973;50.518;7.318;2023-05-27T14:31:41;6.07;;;3.20;;
3916;SDS011;1973;50.518;7.318;2023-05-27T14:34:08;4.20;;;2.90;;
3916;SDS011;1973;50.518;7.318;2023-05-27T14:36:34;7.57;;;3.70;;
3916;SDS011;1973;50.518;7.318;2023-05-27T14:39:01;8.37;;;3.40;;
3916;SDS011;1973;50.518;7.318;2023-05-27T14:41:31;5.90;;;3.23;;
3916;SDS011;1973;50.518;7.318;2023-05-27T14:43:58;4.13;;;3.10;;
3916;SDS011;1973;50.518;7.318;2023-05-27T14:46:25;6.33;;;3.77;;
3916;SDS011;1973;50.518;7.318;2023-05-27T14:48:51;9.87;;;4.30;;
3916;SDS011;1973;50.518;7.318;2023-05-27T14:51:18;7.33;;;4.00;;
3916;SDS011;1973;50.518;7.318;2023-05-27T14:53:44;6.20;;;4.27;;
3916;SDS011;1973;50.518;7.318;2023-05-27T14:56:11;6.07;;;3.17;;
3916;SDS011;1973;50.518;7.318;2023-05-27T14:58:38;7.50;;;3.80;;
3916;SDS011;1973;50.518;7.318;2023-05-27T15:01:05;4.53;;;3.23;;
3916;SDS011;1973;50.518;7.318;2023-05-27T15:03:32;6.83;;;3.40;;
3916;SDS011;1973;50.518;7.318;2023-05-27T15:05:59;7.07;;;3.63;;
3916;SDS011;1973;50.518;7.318;2023-05-27T15:08:25;8.00;;;4.33;;
3916;SDS011;1973;50.518;7.318;2023-05-27T15:10:52;6.10;;;3.60;;
3916;SDS011;1973;50.518;7.318;2023-05-27T15:13:19;5.47;;;3.17;;
3916;SDS011;1973;50.518;7.318;2023-05-27T15:15:46;5.40;;;3.37;;
3916;SDS011;1973;50.518;7.318;2023-05-27T15:18:13;7.17;;;3.60;;